Zim Luanda — 9HA2029 — position and weather

sailwx.info

Track history (hours):
 
Tides and Currents Weather Stations Pressure Air Temp Water Temp Dewpoint Dewpoint Depression Visibility Wind Speed Wind Dir Waves Ship Positions

Zim Luanda

Last reported at 2016-May-25 18:33 UTC. Time now 2016-May-25 18:55 UTC.
Position N 41°12' E 002°32'.

Length 260 m; draft 10.6 m.

Type: Ship (hazmat cat A). MMSI: 249830000.

Date/timePositionNaut miles runAvg speedWind from/ knotsBaromVisibWave heightAir tempDewpointWater temp
2016-May-25 18:33N 41°12' E 002°32'1111.5
2016-May-25 17:33N 41°08' E 002°18'1211.6
2016-May-25 16:33N 41°03' E 002°04'1212.0
2016-May-25 15:33N 41°03' E 001°48'1311.9
2016-May-25 14:29N 41°03' E 001°31'1111.9
2016-May-25 13:33N 41°02' E 001°17'29 2.4
2016-May-25 01:22N 40°36' E 000°59'1112.3
2016-May-25 00:30N 40°27' E 000°53'1212.2
2016-May-24 23:33N 40°16' E 000°46'1212.2
2016-May-24 22:33N 40°07' E 000°37'4912.2
2016-May-24 18:32N 39°29' W 000°04'1110.9
2016-May-24 17:33N 39°25' W 000°18'2 1.7
2016-May-24 16:31N 39°27' W 000°19'0 0.0
2016-May-24 15:31N 39°27' W 000°19'0 0.0
2016-May-24 14:31N 39°27' W 000°19'0 0.0
2016-May-24 13:31N 39°27' W 000°19'0 0.0
2016-May-24 12:31N 39°27' W 000°19'0 0.0
2016-May-24 11:31N 39°27' W 000°19'0 0.0
2016-May-24 10:31N 39°27' W 000°19'0 0.0
2016-May-24 09:31N 39°27' W 000°19'0 0.0
2016-May-24 08:31N 39°27' W 000°19'0 0.0
2016-May-24 07:31N 39°27' W 000°19'0 0.0
2016-May-24 06:31N 39°27' W 000°19'0 0.0
2016-May-24 05:31N 39°27' W 000°19'0 0.0
2016-May-24 04:31N 39°27' W 000°19'0 0.0
2016-May-24 03:31N 39°27' W 000°19'0 0.0
2016-May-24 02:28N 39°27' W 000°19'0 0.0
2016-May-24 01:31N 39°27' W 000°19'3 3.3
2016-May-24 00:33N 39°25' W 000°15'1 1.3
2016-May-23 23:33N 39°25' W 000°14'2 1.9
2016-May-23 22:33N 39°24' W 000°12'4410.1
2016-May-23 18:12N 38°48' E 000°21'1911.4
2016-May-23 16:31N 38°29' E 000°17'2913.5
2016-May-23 14:22N 38°05' W 000°03'2513.7
2016-May-23 12:33N 37°44' W 000°21'1413.9
2016-May-23 11:33N 37°33' W 000°31'1414.3
2016-May-23 10:33N 37°23' W 000°45'1413.8
2016-May-23 09:33N 37°14' W 000°58'22113.0
2016-May-22 16:33N 35°58' W 005°16'22113.6
2016-May-22 00:17N 36°21' W 009°49'64813.7
2016-May-20 01:07N 37°59' W 023°12'3513.8
2016-May-19 22:33N 38°02' W 023°57'1413.8
2016-May-19 21:33N 38°03' W 024°14'1413.6
2016-May-19 20:33N 38°03' W 024°32'1413.6
2016-May-19 19:33N 38°04' W 024°49'1413.6
2016-May-19 18:34N 38°05' W 025°06'1313.3
2016-May-19 17:34N 38°06' W 025°23'1413.8
2016-May-19 16:33N 38°07' W 025°41'1313.4
2016-May-19 15:33N 38°07' W 025°58'1413.7
2016-May-19 14:33N 38°08' W 026°15'1514.6
2016-May-19 13:34N 38°08' W 026°33'1313.4
2016-May-19 12:34N 38°09' W 026°50'1413.7
2016-May-19 11:33N 38°09' W 027°08'1313.5
2016-May-19 10:33N 38°10' W 027°25'1413.7
2016-May-19 09:33N 38°10' W 027°42'1413.6
2016-May-19 08:33N 38°11' W 027°60'1413.7
2016-May-19 07:33N 38°11' W 028°17'1413.8
2016-May-19 06:34N 38°11' W 028°35'1413.8
2016-May-19 05:33N 38°11' W 028°52'1413.7
2016-May-19 04:34N 38°11' W 029°10'1413.7
2016-May-19 03:33N 38°11' W 029°27'1413.7
2016-May-19 02:33N 38°11' W 029°44'1413.5
2016-May-19 01:33N 38°11' W 030°02'1313.3
2016-May-19 00:33N 38°11' W 030°19'1413.8
2016-May-18 23:33N 38°11' W 030°36'1413.9
2016-May-18 22:33N 38°10' W 030°54'  
Track history (hours):
 
Tides and Currents Weather Stations Pressure Air Temp Water Temp Dewpoint Dewpoint Depression Visibility Wind Speed Wind Dir Waves Ship Positions

Zim Luanda

Last reported at 2016-May-25 18:33 UTC. Time now 2016-May-25 18:55 UTC.
Position N 41°12' E 002°32'.

Length 260 m; draft 10.6 m.

Type: Ship (hazmat cat A). MMSI: 249830000.

Date/timePositionNaut miles runAvg speedWind from/ knotsBaromVisibWave heightAir tempDewpointWater temp
2016-May-25 18:33N 41°12' E 002°32'1111.5
2016-May-25 17:33N 41°08' E 002°18'1211.6
2016-May-25 16:33N 41°03' E 002°04'1212.0
2016-May-25 15:33N 41°03' E 001°48'1311.9
2016-May-25 14:29N 41°03' E 001°31'1111.9
2016-May-25 13:33N 41°02' E 001°17'29 2.4
2016-May-25 01:22N 40°36' E 000°59'1112.3
2016-May-25 00:30N 40°27' E 000°53'1212.2
2016-May-24 23:33N 40°16' E 000°46'1212.2
2016-May-24 22:33N 40°07' E 000°37'4912.2
2016-May-24 18:32N 39°29' W 000°04'1110.9
2016-May-24 17:33N 39°25' W 000°18'2 1.7
2016-May-24 16:31N 39°27' W 000°19'0 0.0
2016-May-24 15:31N 39°27' W 000°19'0 0.0
2016-May-24 14:31N 39°27' W 000°19'0 0.0
2016-May-24 13:31N 39°27' W 000°19'0 0.0
2016-May-24 12:31N 39°27' W 000°19'0 0.0
2016-May-24 11:31N 39°27' W 000°19'0 0.0
2016-May-24 10:31N 39°27' W 000°19'0 0.0
2016-May-24 09:31N 39°27' W 000°19'0 0.0
2016-May-24 08:31N 39°27' W 000°19'0 0.0
2016-May-24 07:31N 39°27' W 000°19'0 0.0
2016-May-24 06:31N 39°27' W 000°19'0 0.0
2016-May-24 05:31N 39°27' W 000°19'0 0.0
2016-May-24 04:31N 39°27' W 000°19'0 0.0
2016-May-24 03:31N 39°27' W 000°19'0 0.0
2016-May-24 02:28N 39°27' W 000°19'0 0.0
2016-May-24 01:31N 39°27' W 000°19'3 3.3
2016-May-24 00:33N 39°25' W 000°15'1 1.3
2016-May-23 23:33N 39°25' W 000°14'2 1.9
2016-May-23 22:33N 39°24' W 000°12'4410.1
2016-May-23 18:12N 38°48' E 000°21'1911.4
2016-May-23 16:31N 38°29' E 000°17'2913.5
2016-May-23 14:22N 38°05' W 000°03'2513.7
2016-May-23 12:33N 37°44' W 000°21'1413.9
2016-May-23 11:33N 37°33' W 000°31'1414.3
2016-May-23 10:33N 37°23' W 000°45'1413.8
2016-May-23 09:33N 37°14' W 000°58'22113.0
2016-May-22 16:33N 35°58' W 005°16'22113.6
2016-May-22 00:17N 36°21' W 009°49'64813.7
2016-May-20 01:07N 37°59' W 023°12'3513.8
2016-May-19 22:33N 38°02' W 023°57'1413.8
2016-May-19 21:33N 38°03' W 024°14'1413.6
2016-May-19 20:33N 38°03' W 024°32'1413.6
2016-May-19 19:33N 38°04' W 024°49'1413.6
2016-May-19 18:34N 38°05' W 025°06'1313.3
2016-May-19 17:34N 38°06' W 025°23'1413.8
2016-May-19 16:33N 38°07' W 025°41'1313.4
2016-May-19 15:33N 38°07' W 025°58'1413.7
2016-May-19 14:33N 38°08' W 026°15'1514.6
2016-May-19 13:34N 38°08' W 026°33'1313.4
2016-May-19 12:34N 38°09' W 026°50'1413.7
2016-May-19 11:33N 38°09' W 027°08'1313.5
2016-May-19 10:33N 38°10' W 027°25'1413.7
2016-May-19 09:33N 38°10' W 027°42'1413.6
2016-May-19 08:33N 38°11' W 027°60'1413.7
2016-May-19 07:33N 38°11' W 028°17'1413.8
2016-May-19 06:34N 38°11' W 028°35'1413.8
2016-May-19 05:33N 38°11' W 028°52'1413.7
2016-May-19 04:34N 38°11' W 029°10'1413.7
2016-May-19 03:33N 38°11' W 029°27'1413.7
2016-May-19 02:33N 38°11' W 029°44'1413.5
2016-May-19 01:33N 38°11' W 030°02'1313.3
2016-May-19 00:33N 38°11' W 030°19'1413.8
2016-May-18 23:33N 38°11' W 030°36'1413.9
2016-May-18 22:33N 38°10' W 030°54'  

Dump ship's entire track history